createdAt,value
2023-06-05T00:04:46.376Z,25.30
2023-06-05T00:09:49.782Z,25.30
2023-06-05T00:14:54.509Z,25.30
2023-06-05T00:19:59.444Z,25.30
2023-06-05T00:25:02.722Z,25.30
2023-06-05T00:30:09.052Z,25.30
2023-06-05T00:35:12.988Z,25.30
2023-06-05T00:40:16.673Z,25.30
2023-06-05T00:45:21.532Z,25.20
2023-06-05T00:50:26.106Z,25.20
2023-06-05T00:55:29.530Z,25.10
2023-06-05T01:00:35.317Z,25.00
2023-06-05T01:05:39.078Z,25.00
2023-06-05T01:10:42.534Z,24.90
2023-06-05T01:15:49.556Z,24.80
2023-06-05T01:20:57.521Z,24.80
2023-06-05T01:26:07.685Z,24.80
2023-06-05T01:31:15.184Z,24.80
2023-06-05T01:36:19.038Z,24.70
2023-06-05T01:41:24.431Z,24.80
2023-06-05T01:46:27.805Z,24.80
2023-06-05T01:51:31.327Z,24.80
2023-06-05T01:56:37.781Z,24.80
2023-06-05T02:01:44.945Z,24.80
2023-06-05T02:06:50.256Z,24.90
2023-06-05T02:11:54.997Z,24.90
2023-06-05T02:16:58.373Z,24.90
2023-06-05T02:22:01.829Z,25.00
2023-06-05T02:27:06.846Z,24.90
2023-06-05T02:32:10.338Z,25.00
2023-06-05T02:37:13.998Z,25.00
2023-06-05T02:42:19.898Z,25.00
2023-06-05T02:47:23.985Z,24.90
2023-06-05T02:52:28.314Z,24.90
2023-06-05T02:57:34.675Z,24.90
2023-06-05T03:02:38.781Z,25.00
2023-06-05T03:07:43.308Z,25.00
2023-06-05T03:12:48.678Z,24.90
2023-06-05T03:17:52.626Z,24.90
2023-06-05T03:22:59.388Z,25.00
2023-06-05T03:28:04.228Z,25.00
2023-06-05T03:33:08.538Z,25.00
2023-06-05T03:38:12.578Z,25.00
2023-06-05T03:43:17.930Z,25.00
2023-06-05T03:48:22.300Z,25.00
2023-06-05T03:53:30.516Z,25.00
2023-06-05T03:58:35.507Z,25.00
2023-06-05T04:03:40.306Z,25.00
2023-06-05T04:08:43.784Z,25.00
2023-06-05T04:13:49.068Z,25.00
2023-06-05T04:18:52.353Z,25.00
2023-06-05T04:23:56.505Z,25.00
2023-06-05T04:29:03.290Z,25.00
2023-06-05T04:34:07.783Z,25.00
2023-06-05T04:39:15.766Z,25.00
2023-06-05T04:44:22.011Z,25.10
2023-06-05T04:49:25.718Z,25.10
2023-06-05T04:54:29.262Z,25.10
2023-06-05T04:59:34.480Z,25.10
2023-06-05T05:04:38.799Z,25.10
2023-06-05T05:09:42.326Z,25.10
2023-06-05T05:14:47.469Z,25.20
2023-06-05T05:19:51.203Z,25.20
2023-06-05T05:24:55.194Z,25.30
2023-06-05T05:30:00.232Z,25.30
2023-06-05T05:35:06.073Z,25.40
2023-06-05T05:40:12.076Z,25.50
2023-06-05T05:45:16.956Z,25.60
2023-06-05T05:50:20.464Z,25.60
2023-06-05T05:55:23.806Z,25.70
2023-06-05T06:00:29.331Z,25.80
2023-06-05T06:05:32.849Z,25.90
2023-06-05T06:10:37.552Z,26.00
2023-06-05T06:15:42.390Z,26.10
2023-06-05T06:20:45.792Z,26.20
2023-06-05T06:25:49.462Z,26.30
2023-06-05T06:30:55.479Z,26.30
2023-06-05T06:35:59.620Z,26.30
2023-06-05T06:41:02.966Z,26.40
2023-06-05T06:46:08.346Z,26.40
2023-06-05T06:51:11.981Z,26.40
2023-06-05T06:56:16.760Z,26.40
2023-06-05T07:01:21.973Z,26.40
2023-06-05T07:06:25.338Z,26.40
2023-06-05T07:11:28.703Z,26.40
2023-06-05T07:16:34.145Z,26.50
2023-06-05T07:21:39.123Z,26.50
2023-06-05T07:26:42.475Z,26.50
2023-06-05T07:31:47.570Z,26.60
2023-06-05T07:36:52.635Z,26.60
2023-06-05T07:41:56.653Z,26.70
2023-06-05T07:47:01.425Z,26.70
2023-06-05T07:52:04.913Z,26.70
2023-06-05T07:57:09.556Z,26.80
2023-06-05T08:02:14.546Z,26.80
2023-06-05T08:07:17.998Z,26.90
2023-06-05T08:12:21.415Z,26.90
2023-06-05T08:17:26.265Z,27.00
2023-06-05T08:22:30.708Z,27.00
2023-06-05T08:27:34.119Z,27.10
2023-06-05T08:32:38.930Z,27.20
2023-06-05T08:37:42.513Z,27.20
2023-06-05T08:42:46.322Z,27.30
2023-06-05T08:47:52.974Z,27.40
2023-06-05T08:52:58.866Z,27.40
2023-06-05T08:58:04.772Z,27.50
2023-06-05T09:03:16.304Z,27.60
2023-06-05T09:08:21.708Z,27.70
2023-06-05T09:13:26.042Z,27.80
2023-06-05T09:18:31.045Z,28.00
2023-06-05T09:23:34.477Z,28.10
2023-06-05T09:28:37.884Z,28.20
2023-06-05T09:33:42.792Z,28.30
2023-06-05T09:38:46.605Z,28.40
2023-06-05T09:43:51.985Z,28.50
2023-06-05T09:49:00.919Z,28.60
2023-06-05T09:54:05.322Z,28.70
2023-06-05T09:59:10.161Z,28.80
2023-06-05T10:04:17.865Z,28.80
2023-06-05T10:09:21.441Z,28.90
2023-06-05T10:14:24.942Z,28.90
2023-06-05T10:19:30.130Z,28.90
2023-06-05T10:24:37.112Z,28.90
2023-06-05T10:30:14.464Z,28.90
2023-06-05T10:35:34.257Z,28.90
2023-06-05T10:40:38.692Z,28.90
2023-06-05T10:45:42.677Z,28.90
2023-06-05T10:50:49.049Z,28.90
2023-06-05T10:55:52.542Z,28.90
2023-06-05T11:01:18.258Z,28.90
2023-06-05T11:06:24.108Z,28.90
2023-06-05T11:11:27.836Z,28.90
2023-06-05T11:16:33.034Z,29.00
2023-06-05T11:22:06.998Z,29.10
2023-06-05T11:27:43.724Z,29.10
2023-06-05T11:32:47.660Z,29.20
2023-06-05T11:38:09.493Z,29.40
2023-06-05T11:43:14.509Z,29.40
2023-06-05T11:48:18.471Z,29.50
2023-06-05T11:53:23.441Z,29.60
2023-06-05T11:58:29.450Z,29.60
2023-06-05T12:03:33.941Z,29.60
2023-06-05T12:08:38.921Z,29.60
2023-06-05T12:13:50.028Z,29.60
2023-06-05T12:19:05.850Z,29.60
2023-06-05T12:24:24.888Z,29.60
2023-06-05T12:29:30.484Z,29.50
2023-06-05T12:39:53.952Z,29.50
2023-06-05T12:44:57.642Z,29.50
2023-06-05T12:50:01.075Z,29.50
2023-06-05T12:55:06.862Z,29.50
2023-06-05T13:00:14.726Z,29.40
2023-06-05T13:05:18.717Z,29.40
2023-06-05T13:10:23.357Z,29.40
2023-06-05T13:15:26.891Z,29.40
2023-06-05T13:20:34.993Z,29.40
2023-06-05T13:25:41.211Z,29.40
2023-06-05T13:30:44.839Z,29.30
2023-06-05T13:35:48.235Z,29.30
2023-06-05T13:40:53.321Z,29.30
2023-06-05T13:45:56.961Z,29.30
2023-06-05T13:51:00.307Z,29.30
2023-06-05T13:56:05.658Z,29.30
2023-06-05T14:01:09.026Z,29.40
2023-06-05T14:06:12.555Z,29.40
2023-06-05T14:11:17.394Z,29.60
2023-06-05T14:16:21.378Z,29.70
2023-06-05T14:21:25.800Z,29.80
2023-06-05T14:26:31.819Z,29.90
2023-06-05T14:31:35.499Z,30.00
2023-06-05T14:36:38.868Z,30.10
2023-06-05T14:41:45.664Z,30.20
2023-06-05T14:46:48.974Z,30.20
2023-06-05T14:51:52.485Z,30.20
2023-06-05T14:56:57.180Z,30.30
2023-06-05T15:02:00.823Z,30.30
2023-06-05T15:07:04.287Z,30.30
2023-06-05T15:12:11.570Z,30.30
2023-06-05T15:17:15.107Z,30.30
2023-06-05T15:22:18.429Z,30.30
2023-06-05T15:27:23.265Z,30.30
2023-06-05T15:32:26.861Z,30.30
2023-06-05T15:37:30.881Z,30.20
2023-06-05T15:42:38.436Z,30.20
2023-06-05T15:47:42.320Z,30.10
2023-06-05T15:52:45.672Z,30.10
2023-06-05T15:57:51.522Z,30.00
2023-06-05T16:02:55.289Z,29.90
2023-06-05T16:07:58.913Z,29.80
2023-06-05T16:13:04.110Z,29.70
2023-06-05T16:18:08.196Z,29.70
2023-06-05T16:23:12.392Z,29.60
2023-06-05T16:28:17.405Z,29.60
2023-06-05T16:33:21.144Z,29.50
2023-06-05T16:38:24.588Z,29.40
2023-06-05T16:43:29.248Z,29.20
2023-06-05T16:48:33.268Z,29.10
2023-06-05T16:53:37.131Z,28.90
2023-06-05T16:58:43.143Z,28.70
2023-06-05T17:03:49.138Z,28.50
2023-06-05T17:08:53.040Z,28.30
2023-06-05T17:13:57.839Z,28.10
2023-06-05T17:19:04.372Z,27.90
2023-06-05T17:24:08.122Z,27.80
2023-06-05T17:29:12.984Z,27.60
2023-06-05T17:34:16.438Z,27.50
2023-06-05T17:39:19.740Z,27.30
2023-06-05T17:44:32.681Z,27.20
2023-06-05T17:49:37.060Z,27.00
2023-06-05T17:54:40.629Z,26.90
2023-06-05T17:59:45.500Z,26.80
2023-06-05T18:04:49.057Z,26.70
2023-06-05T18:09:52.638Z,26.60
2023-06-05T18:14:57.589Z,26.60
2023-06-05T18:20:01.205Z,26.50
2023-06-05T18:25:04.792Z,26.40
2023-06-05T18:30:10.441Z,26.40
2023-06-05T18:35:13.768Z,26.30
2023-06-05T18:40:17.344Z,26.20
2023-06-05T18:45:24.292Z,26.10
2023-06-05T18:50:28.513Z,26.00
2023-06-05T18:55:34.351Z,25.90
2023-06-05T19:00:39.544Z,25.90
2023-06-05T19:05:46.587Z,25.80
2023-06-05T19:10:49.963Z,25.80
2023-06-05T19:15:54.904Z,25.70
2023-06-05T19:20:58.399Z,25.70
2023-06-05T19:26:02.974Z,25.70
2023-06-05T19:31:07.942Z,25.70
2023-06-05T19:36:11.503Z,25.60
2023-06-05T19:41:17.013Z,25.60
2023-06-05T19:46:23.791Z,25.60
2023-06-05T19:51:27.261Z,25.50
2023-06-05T19:56:32.368Z,25.50
2023-06-05T20:01:39.364Z,25.50
2023-06-05T20:06:42.922Z,25.40
2023-06-05T20:11:46.302Z,25.40
2023-06-05T20:16:51.535Z,25.30
2023-06-05T20:21:56.235Z,25.30
2023-06-05T20:26:59.566Z,25.30
2023-06-05T20:32:04.446Z,25.20
2023-06-05T20:37:09.080Z,25.20
2023-06-05T20:42:14.777Z,25.10
2023-06-05T20:47:19.750Z,25.10
2023-06-05T20:52:23.076Z,25.00
2023-06-05T20:57:26.534Z,25.00
2023-06-05T21:02:31.513Z,24.90
2023-06-05T21:07:34.984Z,24.90
2023-06-05T21:12:38.407Z,24.80
2023-06-05T21:17:43.530Z,24.80
2023-06-05T21:22:47.145Z,24.80
2023-06-05T21:27:50.631Z,24.90
2023-06-05T21:32:55.278Z,24.90
2023-06-05T21:37:58.943Z,24.90
2023-06-05T21:43:02.320Z,24.90
2023-06-05T21:48:07.282Z,24.90
2023-06-05T21:53:10.788Z,24.90
2023-06-05T21:58:14.197Z,24.90
2023-06-05T22:03:19.104Z,24.80
2023-06-05T22:08:22.475Z,24.80
2023-06-05T22:13:29.651Z,24.80
2023-06-05T22:18:42.563Z,24.80
2023-06-05T22:23:46.313Z,24.80
2023-06-05T22:28:49.691Z,24.80
2023-06-05T22:33:55.067Z,24.80
2023-06-05T22:38:59.634Z,24.80
2023-06-05T22:44:03.057Z,24.80
2023-06-05T22:49:11.291Z,24.80
2023-06-05T22:54:14.709Z,24.90
2023-06-05T22:59:18.273Z,24.80
2023-06-05T23:04:23.033Z,24.80
2023-06-05T23:09:26.326Z,24.80
2023-06-05T23:14:30.351Z,24.80
2023-06-05T23:19:35.109Z,24.80
2023-06-05T23:24:38.330Z,24.80
2023-06-05T23:29:41.639Z,24.80
2023-06-05T23:34:46.476Z,24.80
2023-06-05T23:39:50.131Z,24.80
2023-06-05T23:44:53.461Z,24.80
2023-06-05T23:49:58.142Z,24.80
2023-06-05T23:55:04.906Z,24.80
